aviador You're here:

KDBQ Decoded Metar

DUBUQUE in IA, USA
Report Time2018-02-19 11:53:00
UTC Time2018-02-19 12:10:42
Flight Rules vfr VFR
Wind160° at 08 kt
W.Decomp.*RWY 18: 7.4 kt HW 3.1 kt LCW
RWY 13: 7.1 kt HW 3.6 kt RCW
W.Rank160° ranks 6
Current wind is below 160° avg. (10.1)
Visibility9999 m
Phenomena:N/A
Clouds:N/A
Expected CloudBase > 800 ft AGL from Temp-Dew spread
CeilingNone
Temp02°C (ISA -11)
Dew Point00°C (87% RH)
AAT-2.9°C
QNH1007 hPa
Density Alt52 ft
Elevation1,077 ft
Report Wrong Elevation
Raw Report
METAR KDBQ 191153Z 16008KT 10SM CLR 02/00 A2975 RMK AO2 PRESFR SLP082
T00220000 10028 20017 58001=

Extra information for KDBQ:More info

Metar Taf Metar & Taf Last 4 Metars F.Rules Stats Wind Profile Meteogram Temp Stats Airport Information Weather charts Add Link Nearby VenuesMetar ALERT Operation Metar Decoded Social comments

AIRNAV info for KDBQ